Airfield :
LOGIN :

Register | Disclaimer

   EN    FR    IT 

 










Legend :    VFR   Marginal VFR   IFR   Intensive IFR   Very Intensive IFR
Visi :
Ceiling :
>= 8 km
>= 3000ft
5 to 8 km
1000 to 3000 ft
1500m to 5 km
500 to 1000 ft
800 to 1500m
200 to 500 ft
< 800m
< 200 ft
Symbols :   Thunderstorms  Fog  Heavy snow  Heavy precipitations  Wind > 20 kt
SIGMETs :     Misc.  Thunderstorms  Icing  Turbulence  Mountain Waves  Volcanic Ashes






- Airport Elevation : 124 ft
- IATA code : AVN


LFMV - Avignon Caumont

CURRENT METAR :
  • 131000Z AUTO 33008KT 300V360 9999 FEW008 SCT070 BKN082 09/08 Q0994 NOSIG

EXPIRED METARs :
  • 130930Z AUTO 33008KT 9999 SCT007 BKN074 OVC110 08/07 Q0994 NOSIG
  • 130900Z AUTO 36012G26KT 9000 BKN004 OVC100 08/07 Q0993 TEMPO BKN070
  • 130830Z AUTO 30004KT 260V330 6000 OVC005 08/08 Q0992 TEMPO BKN070
  • 130800Z AUTO 01003KT 290V070 4200 -RA BR BKN003/// OVC007/// ///TCU 08/08 Q0991 BECMG 7000 -RA BKN013
  • 130730Z AUTO 35008KT 320V020 7000 -RA OVC004/// ///TCU 09/08 Q0991 BECMG BKN013

TAF AMD TAF LFMV
Valid from the 13 at 09:00 until the 14 at 09:00 UTC


130927Z 1309/1409 34010KT 9999 BKN005
BECMG 1310/1312 SCT013
PROB30
TEMPO 1310/1314 -RA BKN070
BECMG 1312/1314 CAVOK
BECMG 1318/1320 VRB03KT
BECMG 1322/1324 BKN050
ATIS : +33 4 90 84 32 84



MET'MAP, your aeronautical weather chart ! - Copyright ORBIFLY December 2007 - Disclaimer

ORBIFLY MET'MAP TEAM :

Programming & Development : Alexandra Zaïnal
Concept & original design : Baudouin d'Aumeries
Assistance for programming : Marc-Olivier Méhu
Technical & hardware support : Manuel Goepfert

Contact : metmap@orbifly.com




SOURCES & CREDITS :

   NOAA